Time;durP1;ratioP1;P1;durP2;ratioP2;P2;SDS_P1;SDS_P2;PMS_P1;PMS_P2;Temp;Humidity;BMP_temperature;BMP_pressure;BME280_temperature;BME280_humidity;BME280_pressure;Samples;Min_cycle;Max_cycle;Signal;HPM_P1;HPM_P2
2024/01/01 00:01:45;;;;;;;157.38;101.88;;;7.50;99.90;;;;;;5069369;28;20511;-73
2024/01/01 00:04:11;;;;;;;147.80;106.80;;;7.60;99.90;;;;;;5071137;28;20414;-74
2024/01/01 00:06:37;;;;;;;138.20;95.45;;;7.70;99.90;;;;;;5071055;28;20028;-73
2024/01/01 00:09:02;;;;;;;321.70;218.00;;;7.60;99.90;;;;;;5068659;28;20093;-73
2024/01/01 00:11:28;;;;;;;256.02;178.95;;;7.80;99.90;;;;;;5075168;28;20123;-73
2024/01/01 00:13:54;;;;;;;134.40;94.28;;;7.70;99.90;;;;;;5071407;28;20048;-74
2024/01/01 00:16:19;;;;;;;145.38;101.20;;;7.60;99.90;;;;;;5052860;28;20433;-73
2024/01/01 00:18:45;;;;;;;111.07;74.32;;;7.70;99.90;;;;;;5069882;28;20043;-72
2024/01/01 00:21:11;;;;;;;143.63;93.85;;;7.70;99.90;;;;;;5071732;28;20040;-74
2024/01/01 00:23:36;;;;;;;135.82;85.93;;;7.90;99.90;;;;;;5074394;28;20066;-73
2024/01/01 00:26:03;;;;;;;149.48;97.60;;;7.80;99.90;;;;;;5075392;28;20082;-72
2024/01/01 00:28:29;;;;;;;93.28;62.20;;;7.70;99.90;;;;;;5075343;28;20040;-74
2024/01/01 00:30:54;;;;;;;65.72;41.97;;;7.70;99.90;;;;;;5075359;28;20040;-74
2024/01/01 00:33:20;;;;;;;183.85;105.05;;;7.90;99.90;;;;;;5075480;28;20558;-73
2024/01/01 00:35:47;;;;;;;190.50;111.25;;;7.90;99.90;;;;;;5071725;28;20431;-74
2024/01/01 00:38:13;;;;;;;103.65;62.30;;;7.80;99.90;;;;;;5070572;28;20054;-74
2024/01/01 00:40:38;;;;;;;91.57;58.67;;;7.90;99.90;;;;;;5075329;28;20068;-74
2024/01/01 00:43:04;;;;;;;69.72;42.42;;;7.80;99.90;;;;;;5075239;28;20415;-73
2024/01/01 00:45:30;;;;;;;67.97;37.00;;;7.80;99.90;;;;;;5073738;28;20036;-75
2024/01/01 00:47:55;;;;;;;65.25;40.17;;;7.80;99.90;;;;;;5074773;28;20522;-73
2024/01/01 00:50:21;;;;;;;61.78;35.92;;;7.70;99.90;;;;;;5073893;28;20122;-74
2024/01/01 00:52:47;;;;;;;65.03;37.55;;;7.70;99.90;;;;;;5075052;28;20116;-73
2024/01/01 00:55:12;;;;;;;57.45;34.58;;;7.80;99.90;;;;;;5074809;28;20506;-72
2024/01/01 00:57:38;;;;;;;60.40;34.83;;;7.70;99.90;;;;;;5056768;28;20102;-72
2024/01/01 01:00:04;;;;;;;247.38;136.20;;;7.90;99.90;;;;;;5074737;28;20041;-72
2024/01/01 01:02:30;;;;;;;349.85;256.10;;;7.80;99.90;;;;;;5074995;28;20040;-73
2024/01/01 01:04:56;;;;;;;242.70;184.07;;;7.80;99.90;;;;;;5074805;28;20496;-72
2024/01/01 01:07:22;;;;;;;191.50;137.45;;;7.80;99.90;;;;;;5074639;28;20036;-72
2024/01/01 01:09:47;;;;;;;121.38;80.97;;;7.70;99.90;;;;;;5056888;28;20044;-73
2024/01/01 01:12:13;;;;;;;108.60;72.53;;;7.90;99.90;;;;;;5074682;28;20079;-73
2024/01/01 01:14:39;;;;;;;120.60;80.78;;;7.70;99.90;;;;;;5073371;28;20056;-73
2024/01/01 01:17:04;;;;;;;132.75;112.80;;;7.90;99.90;;;;;;5074600;28;20040;-73
2024/01/01 01:19:30;;;;;;;131.52;112.75;;;7.80;99.90;;;;;;5073132;28;20514;-73
2024/01/01 01:21:56;;;;;;;88.80;60.15;;;7.90;99.90;;;;;;5074609;28;20032;-72
2024/01/01 01:24:21;;;;;;;101.70;74.05;;;7.90;99.90;;;;;;5074470;28;20036;-73
2024/01/01 01:26:47;;;;;;;124.55;92.25;;;7.80;99.90;;;;;;5073002;28;20127;-73
2024/01/01 01:29:12;;;;;;;81.18;58.28;;;7.80;99.90;;;;;;5073100;28;20079;-73
2024/01/01 01:31:41;;;;;;;169.65;118.22;;;7.90;99.90;;;;;;5073044;28;20055;-73
2024/01/01 01:34:07;;;;;;;91.75;67.10;;;7.90;99.90;;;;;;5073044;28;20040;-73
2024/01/01 01:36:33;;;;;;;71.88;43.08;;;7.90;99.90;;;;;;5072915;28;20048;-73
2024/01/01 01:38:59;;;;;;;71.43;43.33;;;8.00;99.90;;;;;;5072644;28;20040;-73
2024/01/01 01:41:24;;;;;;;70.75;43.63;;;8.00;99.90;;;;;;5056426;28;20127;-73
2024/01/01 01:43:50;;;;;;;90.05;46.60;;;7.90;99.90;;;;;;5073972;28;20510;-72
2024/01/01 01:46:16;;;;;;;69.78;42.65;;;7.90;99.90;;;;;;5074008;28;20041;-73
2024/01/01 01:48:43;;;;;;;119.25;71.00;;;7.90;99.90;;;;;;5072539;28;20076;-73
2024/01/01 01:51:08;;;;;;;80.35;45.72;;;7.90;99.90;;;;;;5074104;28;20112;-72
2024/01/01 01:53:35;;;;;;;86.00;51.60;;;7.90;99.90;;;;;;5073937;28;20119;-73
2024/01/01 01:56:04;;;;;;;81.95;42.83;;;8.00;99.90;;;;;;5073658;28;20043;-72
2024/01/01 01:58:31;;;;;;;77.40;48.30;;;8.00;99.90;;;;;;5072550;28;20048;-73
2024/01/01 02:00:58;;;;;;;72.30;44.30;;;7.90;99.90;;;;;;5073932;28;20043;-74
2024/01/01 02:03:23;;;;;;;89.63;57.33;;;8.00;99.90;;;;;;5073898;28;20119;-72
2024/01/01 02:05:50;;;;;;;80.28;56.80;;;8.00;99.90;;;;;;5073484;28;20125;-72
2024/01/01 02:08:16;;;;;;;109.15;70.70;;;8.00;99.90;;;;;;5071977;28;20037;-74
2024/01/01 02:10:42;;;;;;;67.55;41.22;;;8.00;99.90;;;;;;5073594;28;20483;-74
2024/01/01 02:13:28;;;;;;;66.40;45.17;;;8.00;99.90;;;;;;5072276;28;20072;-75
2024/01/01 02:15:56;;;;;;;69.78;42.13;;;8.00;99.90;;;;;;5055384;28;20048;-75
2024/01/01 02:18:23;;;;;;;58.58;36.40;;;8.10;99.90;;;;;;5071979;28;20040;-73
2024/01/01 02:20:48;;;;;;;65.45;40.10;;;8.10;99.90;;;;;;5073420;28;20033;-74
2024/01/01 02:23:16;;;;;;;54.05;32.67;;;8.10;99.90;;;;;;5073177;28;20110;-73
2024/01/01 02:25:42;;;;;;;43.40;25.75;;;8.10;99.90;;;;;;5073333;28;20047;-73
2024/01/01 02:28:07;;;;;;;35.17;21.92;;;8.10;99.90;;;;;;5073110;28;20037;-73
2024/01/01 02:30:33;;;;;;;44.35;26.63;;;8.10;99.90;;;;;;5071871;28;20037;-72
2024/01/01 02:33:09;;;;;;;39.90;23.63;;;8.10;99.90;;;;;;5071923;28;20044;-74
2024/01/01 02:35:35;;;;;;;44.55;25.85;;;8.00;99.90;;;;;;5073004;28;20033;-73
2024/01/01 02:38:04;;;;;;;39.22;23.50;;;8.10;99.90;;;;;;5072746;28;20040;-73
2024/01/01 02:40:34;;;;;;;40.83;23.73;;;8.00;99.90;;;;;;5071638;28;20048;-73
2024/01/01 02:43:01;;;;;;;42.10;24.02;;;8.10;99.90;;;;;;5071666;28;20397;-72
2024/01/01 02:45:28;;;;;;;47.25;26.30;;;8.00;99.90;;;;;;5054457;28;20087;-73
2024/01/01 02:47:53;;;;;;;41.97;22.88;;;7.90;99.90;;;;;;5071317;28;20068;-73
2024/01/01 02:50:20;;;;;;;47.17;26.33;;;8.00;99.90;;;;;;5054935;28;20301;-74
2024/01/01 02:52:46;;;;;;;34.50;21.40;;;8.00;99.90;;;;;;5072865;28;20048;-73
2024/01/01 02:55:12;;;;;;;38.42;20.55;;;8.00;99.90;;;;;;5094495;22;20062;-78
2024/01/01 02:57:38;;;;;;;31.38;20.73;;;7.90;99.90;;;;;;5070289;28;20129;-78
2024/01/01 03:00:04;;;;;;;36.28;20.88;;;7.90;99.90;;;;;;5070258;28;20043;-78
2024/01/01 03:02:30;;;;;;;32.90;18.83;;;8.00;99.90;;;;;;5070555;28;20040;-78
2024/01/01 03:04:55;;;;;;;36.17;20.85;;;8.00;99.90;;;;;;5070682;28;20052;-78
2024/01/01 03:07:22;;;;;;;32.70;17.73;;;7.90;99.90;;;;;;5071754;28;20039;-78
2024/01/01 03:09:49;;;;;;;42.33;21.45;;;7.90;99.90;;;;;;5070941;28;20496;-78
2024/01/01 03:12:15;;;;;;;30.52;17.95;;;7.90;99.90;;;;;;5054271;28;20076;-78
2024/01/01 03:14:42;;;;;;;27.23;13.60;;;7.70;99.90;;;;;;5070501;28;20068;-78
2024/01/01 03:17:08;;;;;;;27.48;13.05;;;7.70;99.90;;;;;;5070393;28;20040;-78
2024/01/01 03:19:34;;;;;;;18.35;10.35;;;7.60;99.90;;;;;;5053542;28;20082;-78
2024/01/01 03:21:59;;;;;;;15.85;8.70;;;7.70;99.90;;;;;;5070379;28;20036;-78
2024/01/01 03:24:25;;;;;;;20.42;10.50;;;7.60;99.90;;;;;;5070149;28;20041;-78
2024/01/01 03:26:51;;;;;;;23.08;11.73;;;7.60;99.90;;;;;;5070357;28;20123;-78
2024/01/01 03:29:17;;;;;;;24.60;12.57;;;7.50;99.90;;;;;;5070205;28;20131;-78
2024/01/01 03:31:45;;;;;;;30.65;15.15;;;7.50;99.90;;;;;;5071537;28;20071;-78
2024/01/01 03:34:11;;;;;;;28.13;14.05;;;7.40;99.90;;;;;;5070102;28;20041;-77
2024/01/01 03:36:36;;;;;;;28.88;16.17;;;7.50;99.90;;;;;;5069973;28;20047;-78
2024/01/01 03:39:03;;;;;;;29.00;13.65;;;7.60;99.90;;;;;;5070196;28;20037;-77
2024/01/01 03:41:29;;;;;;;35.28;19.17;;;7.50;99.90;;;;;;5070180;28;20036;-78
2024/01/01 03:43:56;;;;;;;77.95;50.22;;;7.50;99.90;;;;;;5070105;28;20109;-77
2024/01/01 03:46:22;;;;;;;150.77;118.93;;;7.50;99.90;;;;;;5053521;28;20040;-77
2024/01/01 03:48:48;;;;;;;119.22;95.80;;;7.40;99.90;;;;;;5070079;28;20634;-78
2024/01/01 03:51:13;;;;;;;90.88;73.32;;;7.50;99.90;;;;;;5053377;28;20037;-78
2024/01/01 03:53:39;;;;;;;65.40;51.25;;;7.60;99.90;;;;;;5071319;28;20094;-78
2024/01/01 03:56:06;;;;;;;102.10;76.07;;;7.40;99.90;;;;;;5069212;28;20080;-78
2024/01/01 03:58:31;;;;;;;137.25;105.13;;;7.50;99.90;;;;;;5069857;28;20055;-78
2024/01/01 04:00:57;;;;;;;152.20;118.45;;;7.50;99.90;;;;;;5069895;28;20044;-77
2024/01/01 04:03:23;;;;;;;140.93;108.20;;;7.40;99.90;;;;;;5070138;28;20068;-77
2024/01/01 04:05:48;;;;;;;147.80;111.15;;;7.50;99.90;;;;;;5070765;28;20062;-79
2024/01/01 04:08:14;;;;;;;94.75;62.10;;;7.50;99.90;;;;;;5070768;28;20072;-78
2024/01/01 04:10:40;;;;;;;70.97;49.25;;;7.40;99.90;;;;;;5070077;28;20044;-78
2024/01/01 04:13:05;;;;;;;61.10;42.40;;;7.40;99.90;;;;;;5069711;28;20492;-78
2024/01/01 04:15:31;;;;;;;56.83;35.88;;;7.40;99.90;;;;;;5069844;28;20040;-78
2024/01/01 04:17:56;;;;;;;44.97;26.10;;;7.40;99.90;;;;;;5069816;28;20053;-78
2024/01/01 04:20:22;;;;;;;36.17;21.45;;;7.30;99.90;;;;;;5069759;28;20445;-78
2024/01/01 04:22:51;;;;;;;37.30;19.10;;;7.50;99.90;;;;;;5069773;28;20037;-77
2024/01/01 04:25:20;;;;;;;27.48;14.95;;;7.50;99.90;;;;;;5053233;28;20043;-78
2024/01/01 04:27:45;;;;;;;23.63;12.13;;;7.40;99.90;;;;;;5069463;28;20047;-78
2024/01/01 04:30:11;;;;;;;20.13;10.73;;;7.40;99.90;;;;;;5052871;28;20475;-78
2024/01/01 04:32:37;;;;;;;18.85;9.77;;;7.20;99.90;;;;;;5070919;28;20033;-78
2024/01/01 04:35:03;;;;;;;25.75;12.57;;;7.30;99.90;;;;;;5069728;28;20377;-77
2024/01/01 04:37:29;;;;;;;19.20;8.95;;;7.30;99.90;;;;;;5070788;28;20062;-78
2024/01/01 04:39:55;;;;;;;16.67;6.00;;;7.30;99.90;;;;;;5069617;28;20455;-77
2024/01/01 04:42:20;;;;;;;18.08;8.55;;;7.30;99.90;;;;;;5052754;28;20116;-78
2024/01/01 04:44:46;;;;;;;14.15;6.25;;;7.30;99.90;;;;;;5069393;28;20047;-78
2024/01/01 04:47:12;;;;;;;14.50;7.03;;;7.30;99.90;;;;;;5069252;28;20075;-77
2024/01/01 04:49:38;;;;;;;15.80;6.60;;;7.40;99.90;;;;;;5069492;28;20424;-77
2024/01/01 04:52:04;;;;;;;8.43;5.32;;;7.20;99.90;;;;;;5069670;28;20114;-77
2024/01/01 04:54:29;;;;;;;12.98;6.32;;;7.30;99.90;;;;;;5069229;28;20048;-78
2024/01/01 04:56:55;;;;;;;10.50;5.80;;;7.30;99.90;;;;;;5069262;28;20041;-78
2024/01/01 04:59:21;;;;;;;13.88;5.20;;;7.20;99.90;;;;;;5069120;28;20477;-78
2024/01/01 05:01:46;;;;;;;14.60;5.85;;;7.20;99.90;;;;;;5070734;28;20638;-78
2024/01/01 05:04:12;;;;;;;12.45;5.30;;;7.10;99.90;;;;;;5069340;28;20044;-78
2024/01/01 05:06:37;;;;;;;11.07;4.93;;;7.10;99.90;;;;;;5070557;28;20392;-78
2024/01/01 05:09:04;;;;;;;11.73;5.82;;;7.10;99.90;;;;;;5072371;28;20051;-78
2024/01/01 05:11:30;;;;;;;12.80;4.40;;;7.20;99.90;;;;;;5072979;28;20041;-78
2024/01/01 05:13:55;;;;;;;16.88;5.72;;;7.10;99.90;;;;;;5072981;28;20388;-78
2024/01/01 05:16:21;;;;;;;13.52;5.10;;;7.30;99.90;;;;;;5072953;28;20039;-78
2024/01/01 05:18:46;;;;;;;10.50;6.10;;;7.10;99.90;;;;;;5072707;28;20090;-78
2024/01/01 05:21:12;;;;;;;18.67;6.10;;;7.30;99.90;;;;;;5072842;28;20045;-78
2024/01/01 05:23:38;;;;;;;12.43;5.88;;;7.20;99.90;;;;;;5072928;28;20039;-77
2024/01/01 05:26:04;;;;;;;12.98;5.25;;;7.10;99.90;;;;;;5072794;28;20078;-78
2024/01/01 05:28:29;;;;;;;7.90;4.57;;;7.20;99.90;;;;;;5072600;28;20135;-77
2024/01/01 05:30:55;;;;;;;12.80;5.13;;;7.20;99.90;;;;;;5072638;28;20068;-77
2024/01/01 05:33:21;;;;;;;10.68;4.05;;;7.10;99.90;;;;;;5072662;28;20082;-78
2024/01/01 05:35:47;;;;;;;12.73;4.53;;;7.10;99.90;;;;;;5072474;28;20037;-78
2024/01/01 05:38:13;;;;;;;10.07;4.30;;;7.20;99.90;;;;;;5072599;28;20052;-78
2024/01/01 05:40:38;;;;;;;9.75;3.72;;;7.20;99.90;;;;;;5072333;28;20040;-78
2024/01/01 05:43:04;;;;;;;10.70;3.63;;;7.10;99.90;;;;;;5072386;28;20033;-77
2024/01/01 05:45:30;;;;;;;10.48;4.25;;;7.10;99.90;;;;;;5072400;28;20687;-78
2024/01/01 05:47:56;;;;;;;11.25;4.35;;;7.20;99.90;;;;;;5055398;28;20033;-77
2024/01/01 05:50:22;;;;;;;9.52;4.85;;;7.40;99.90;;;;;;5072540;28;20443;-78
2024/01/01 05:52:47;;;;;;;8.05;3.45;;;7.10;99.90;;;;;;5072164;28;20041;-77
2024/01/01 05:55:13;;;;;;;13.75;3.53;;;7.10;99.90;;;;;;5072223;28;20048;-78
2024/01/01 05:57:39;;;;;;;9.95;3.38;;;7.20;99.90;;;;;;5071855;28;20228;-77
2024/01/01 06:00:05;;;;;;;11.70;3.45;;;7.40;99.90;;;;;;5071921;28;20041;-78
2024/01/01 06:02:31;;;;;;;10.95;3.50;;;7.20;99.90;;;;;;5072009;28;20495;-77
2024/01/01 06:04:56;;;;;;;8.95;3.13;;;7.20;99.90;;;;;;5072113;28;20116;-78
2024/01/01 06:07:22;;;;;;;11.60;3.10;;;7.20;99.90;;;;;;5071704;28;20491;-77
2024/01/01 06:09:47;;;;;;;10.98;3.33;;;7.30;99.90;;;;;;5055133;28;20043;-77
2024/01/01 06:12:13;;;;;;;10.20;4.00;;;7.30;99.90;;;;;;5071783;28;20504;-78
2024/01/01 06:14:39;;;;;;;13.77;4.28;;;7.30;99.90;;;;;;5071684;28;20047;-78
2024/01/01 06:17:04;;;;;;;11.27;3.10;;;7.20;99.90;;;;;;5071631;28;20036;-77
2024/01/01 06:19:30;;;;;;;8.18;3.30;;;7.30;99.90;;;;;;5070697;28;20094;-77
2024/01/01 06:21:56;;;;;;;11.48;3.13;;;7.40;99.90;;;;;;5071643;28;20416;-78
2024/01/01 06:24:22;;;;;;;11.07;2.92;;;7.40;99.90;;;;;;5071717;28;20055;-78
2024/01/01 06:26:48;;;;;;;7.25;2.78;;;7.30;99.90;;;;;;5071677;28;20044;-78
2024/01/01 06:29:14;;;;;;;7.65;2.70;;;7.50;99.90;;;;;;5054621;28;20044;-78
2024/01/01 06:31:39;;;;;;;9.32;3.35;;;7.30;99.90;;;;;;5071748;28;20123;-78
2024/01/01 06:34:05;;;;;;;13.05;3.35;;;7.50;99.90;;;;;;5071339;28;20040;-78
2024/01/01 06:36:30;;;;;;;7.20;2.45;;;7.50;99.90;;;;;;5071140;28;20036;-78
2024/01/01 06:38:56;;;;;;;9.02;4.30;;;7.40;99.90;;;;;;5071058;28;20055;-78
2024/01/01 06:41:22;;;;;;;10.27;2.63;;;7.20;99.90;;;;;;5071252;28;20032;-78
2024/01/01 06:43:47;;;;;;;9.10;3.58;;;7.30;99.90;;;;;;5071133;28;20102;-78
2024/01/01 06:46:13;;;;;;;14.23;4.40;;;7.50;99.90;;;;;;5072399;28;20072;-78
2024/01/01 06:48:38;;;;;;;11.68;3.20;;;7.30;99.90;;;;;;5070911;28;20036;-78
2024/01/01 06:51:11;;;;;;;13.20;3.35;;;7.50;99.90;;;;;;5071420;28;20040;-78
2024/01/01 06:53:37;;;;;;;12.75;3.05;;;7.30;99.90;;;;;;5070997;28;20040;-78
2024/01/01 06:56:03;;;;;;;12.10;3.55;;;7.30;99.90;;;;;;5070615;28;20102;-78
2024/01/01 06:58:28;;;;;;;6.75;3.35;;;7.30;99.90;;;;;;5070779;28;20040;-78
2024/01/01 07:00:54;;;;;;;12.07;3.30;;;7.50;99.90;;;;;;5070784;28;20377;-78
2024/01/01 07:03:20;;;;;;;17.80;3.25;;;7.40;99.90;;;;;;5072036;28;20047;-78
2024/01/01 07:05:45;;;;;;;10.45;2.83;;;7.50;99.90;;;;;;5070671;28;20059;-78
2024/01/01 07:08:12;;;;;;;7.50;2.25;;;7.50;99.90;;;;;;5070387;28;20040;-78
2024/01/01 07:10:37;;;;;;;5.65;2.15;;;7.50;99.90;;;;;;5070885;28;20052;-78
2024/01/01 07:13:03;;;;;;;5.38;2.40;;;7.50;99.90;;;;;;5070606;28;20055;-77
2024/01/01 07:15:29;;;;;;;7.20;2.63;;;7.30;99.90;;;;;;5070461;28;20047;-78
2024/01/01 07:17:54;;;;;;;12.50;3.17;;;7.30;99.90;;;;;;5070257;28;20412;-78
2024/01/01 07:20:20;;;;;;;8.50;3.20;;;7.30;99.90;;;;;;5070419;28;20044;-78
2024/01/01 07:22:45;;;;;;;10.73;3.33;;;7.40;99.90;;;;;;5070383;28;20036;-78
2024/01/01 07:25:11;;;;;;;7.20;2.60;;;7.40;99.90;;;;;;5070279;28;20040;-78
2024/01/01 07:27:37;;;;;;;8.45;3.00;;;7.40;99.90;;;;;;5070109;28;20124;-78
2024/01/01 07:30:04;;;;;;;6.55;2.88;;;7.30;99.90;;;;;;5070219;28;20129;-78
2024/01/01 07:32:30;;;;;;;7.97;3.40;;;7.40;99.90;;;;;;5070219;28;20052;-78
2024/01/01 07:34:56;;;;;;;10.23;3.30;;;7.40;99.90;;;;;;5053534;28;20484;-78
2024/01/01 07:37:22;;;;;;;9.20;3.67;;;7.50;99.90;;;;;;5071238;28;20044;-78
2024/01/01 07:39:47;;;;;;;10.88;4.20;;;7.50;99.90;;;;;;5070024;28;20068;-77
2024/01/01 07:42:15;;;;;;;8.90;3.85;;;7.30;99.90;;;;;;5071645;28;20059;-78
2024/01/01 07:44:41;;;;;;;8.55;3.05;;;7.50;99.90;;;;;;5070129;28;20094;-78
2024/01/01 07:47:08;;;;;;;5.88;2.95;;;7.50;99.90;;;;;;5071389;28;20510;-78
2024/01/01 07:49:34;;;;;;;11.05;4.13;;;7.50;99.90;;;;;;5053125;28;20032;-78
2024/01/01 07:52:01;;;;;;;8.25;3.05;;;7.40;99.90;;;;;;5070011;28;20182;-78
2024/01/01 07:54:27;;;;;;;8.27;3.10;;;7.50;99.90;;;;;;5071031;28;20081;-78
2024/01/01 07:56:53;;;;;;;9.10;3.13;;;7.60;99.90;;;;;;5069947;28;20119;-78
2024/01/01 07:59:18;;;;;;;15.55;5.57;;;7.50;99.90;;;;;;5069822;28;20056;-78
2024/01/01 08:01:44;;;;;;;15.52;4.65;;;7.30;99.90;;;;;;5071442;28;20043;-79
2024/01/01 08:04:10;;;;;;;8.18;3.20;;;7.30;99.90;;;;;;5070408;28;20441;-78
2024/01/01 08:06:36;;;;;;;10.82;3.42;;;7.50;99.90;;;;;;5069692;28;20585;-79
2024/01/01 08:09:02;;;;;;;8.48;3.00;;;7.40;99.90;;;;;;5069953;28;20036;-78
2024/01/01 08:11:27;;;;;;;6.10;2.40;;;7.30;99.90;;;;;;5070093;28;20037;-78
2024/01/01 08:13:53;;;;;;;8.05;3.00;;;7.30;99.90;;;;;;5069908;28;20219;-78
2024/01/01 08:16:19;;;;;;;11.48;3.15;;;7.30;99.90;;;;;;5069882;28;20457;-78
2024/01/01 08:18:48;;;;;;;5.82;2.28;;;7.50;99.90;;;;;;5069547;28;20090;-78
2024/01/01 08:21:13;;;;;;;9.35;3.85;;;7.30;99.90;;;;;;5069917;28;20114;-79
2024/01/01 08:23:39;;;;;;;12.07;2.33;;;7.30;99.90;;;;;;5069572;28;20496;-78
2024/01/01 08:26:05;;;;;;;5.22;1.95;;;7.50;99.90;;;;;;5069665;28;20400;-78
2024/01/01 08:28:32;;;;;;;12.07;2.35;;;7.50;99.90;;;;;;5069330;28;20131;-79
2024/01/01 08:30:59;;;;;;;11.32;2.95;;;7.40;99.90;;;;;;5069638;28;20119;-78
2024/01/01 08:33:24;;;;;;;3.60;1.23;;;7.20;99.90;;;;;;5069741;28;20048;-78
2024/01/01 08:35:53;;;;;;;4.88;1.27;;;7.20;99.90;;;;;;5069020;28;20182;-78
2024/01/01 08:38:19;;;;;;;4.78;1.60;;;7.30;99.90;;;;;;5069113;28;20040;-78
2024/01/01 08:40:45;;;;;;;5.30;1.23;;;7.30;99.90;;;;;;5069335;28;20508;-79
2024/01/01 08:43:10;;;;;;;3.63;1.30;;;7.40;99.90;;;;;;5054566;28;20036;-78
2024/01/01 08:45:37;;;;;;;5.32;1.60;;;7.30;99.90;;;;;;5073337;28;20047;-78
2024/01/01 08:48:03;;;;;;;3.85;1.10;;;7.40;99.90;;;;;;5073202;28;20090;-78
2024/01/01 08:50:29;;;;;;;2.70;0.95;;;7.10;99.90;;;;;;5056488;28;20068;-78
2024/01/01 08:52:54;;;;;;;2.28;0.90;;;7.10;99.90;;;;;;5073478;28;20118;-78
2024/01/01 08:55:21;;;;;;;2.80;1.15;;;7.20;99.90;;;;;;5057501;28;20044;-77
2024/01/01 08:57:47;;;;;;;3.38;1.05;;;7.10;99.90;;;;;;5077063;28;20568;-77
2024/01/01 09:00:13;;;;;;;7.22;1.13;;;7.00;99.90;;;;;;5078633;28;20049;-78
2024/01/01 09:02:38;;;;;;;5.80;1.73;;;7.20;99.90;;;;;;5060202;28;20033;-77
2024/01/01 09:05:04;;;;;;;7.60;1.15;;;7.10;99.90;;;;;;5060234;28;20040;-78
2024/01/01 09:07:30;;;;;;;5.20;1.40;;;7.30;99.90;;;;;;5076515;28;20044;-77
2024/01/01 09:09:56;;;;;;;8.10;1.33;;;7.10;99.90;;;;;;5079066;28;20051;-77
2024/01/01 09:12:21;;;;;;;4.80;1.85;;;7.30;99.90;;;;;;5059158;28;20048;-76
2024/01/01 09:14:47;;;;;;;8.68;1.92;;;7.20;99.90;;;;;;5074040;28;20407;-78
2024/01/01 09:17:12;;;;;;;7.55;1.77;;;7.40;99.90;;;;;;5080089;28;20072;-77
2024/01/01 09:19:38;;;;;;;7.38;2.22;;;7.30;99.90;;;;;;5078853;28;20067;-78
2024/01/01 09:22:04;;;;;;;7.55;2.70;;;7.30;99.90;;;;;;5079439;28;20471;-77
2024/01/01 09:24:30;;;;;;;11.00;3.25;;;7.50;99.90;;;;;;5080826;28;20040;-77
2024/01/01 09:26:55;;;;;;;10.55;3.13;;;7.50;99.90;;;;;;5078396;28;20033;-78
2024/01/01 09:29:23;;;;;;;14.75;3.83;;;7.60;99.90;;;;;;5076550;28;20047;-77
2024/01/01 09:31:49;;;;;;;10.18;2.00;;;7.60;99.90;;;;;;5072940;28;20499;-76
2024/01/01 09:34:15;;;;;;;3.42;1.25;;;7.50;99.90;;;;;;5072889;28;20044;-75
2024/01/01 09:36:41;;;;;;;2.75;1.23;;;7.30;99.90;;;;;;5072284;28;20044;-76
2024/01/01 09:39:07;;;;;;;3.00;0.55;;;7.10;99.90;;;;;;5055834;28;20093;-77
2024/01/01 09:41:33;;;;;;;3.35;0.80;;;7.10;99.90;;;;;;5073955;28;20109;-77
2024/01/01 09:44:01;;;;;;;1.63;0.70;;;7.00;99.90;;;;;;5074248;28;20068;-77
2024/01/01 09:46:32;;;;;;;1.77;0.73;;;7.00;99.90;;;;;;5073626;28;20032;-76
2024/01/01 09:49:01;;;;;;;1.52;0.45;;;7.00;99.90;;;;;;5073043;28;20045;-76
2024/01/01 09:51:27;;;;;;;0.52;0.28;;;6.90;99.90;;;;;;5072603;28;20546;-76
2024/01/01 09:53:53;;;;;;;2.70;0.80;;;7.00;99.90;;;;;;5065003;28;20134;-75
2024/01/01 09:56:20;;;;;;;3.70;0.60;;;6.90;99.90;;;;;;5062337;28;20040;-76
2024/01/01 09:58:45;;;;;;;2.28;0.47;;;7.00;99.90;;;;;;5061890;28;20453;-77
2024/01/01 10:01:19;;;;;;;6.82;1.77;;;6.80;99.90;;;;;;5062060;28;20111;-77
2024/01/01 10:04:01;;;;;;;6.35;1.92;;;7.00;99.90;;;;;;5047246;28;20050;-77
2024/01/01 10:06:27;;;;;;;16.13;9.48;;;6.90;99.90;;;;;;5069753;28;20068;-78
2024/01/01 10:09:10;;;;;;;10.57;3.50;;;6.80;99.90;;;;;;5064709;28;20138;-76
2024/01/01 10:11:40;;;;;;;8.00;2.07;;;6.90;99.90;;;;;;5064937;28;21960;-77
2024/01/01 10:14:07;;;;;;;4.90;1.67;;;7.00;99.90;;;;;;5100140;28;20024;-74
2024/01/01 10:16:42;;;;;;;9.73;2.20;;;7.00;99.90;;;;;;5073289;28;20473;-80
2024/01/01 10:19:08;;;;;;;6.53;2.13;;;7.10;99.90;;;;;;5066898;28;20519;-79
2024/01/01 10:21:36;;;;;;;11.63;2.67;;;7.20;99.90;;;;;;5066839;28;20090;-77
2024/01/01 10:24:16;;;;;;;10.85;3.28;;;7.30;99.90;;;;;;5059738;28;20040;-76
2024/01/01 10:26:46;;;;;;;9.50;2.78;;;7.20;99.90;;;;;;5070378;28;20037;-78
2024/01/01 10:29:13;;;;;;;13.63;4.32;;;7.30;99.90;;;;;;5103302;28;20040;-77
2024/01/01 10:31:48;;;;;;;9.73;2.55;;;7.50;99.90;;;;;;5064638;28;20108;-77
2024/01/01 10:34:15;;;;;;;6.13;2.25;;;7.30;99.90;;;;;;5077356;28;20040;-76
2024/01/01 10:36:43;;;;;;;10.00;2.72;;;7.50;99.90;;;;;;5070812;28;20044;-76
2024/01/01 10:39:10;;;;;;;5.40;1.42;;;7.50;99.90;;;;;;5058974;28;20084;-77
2024/01/01 10:41:37;;;;;;;8.23;2.03;;;7.40;99.90;;;;;;5073027;28;20476;-77
2024/01/01 10:44:04;;;;;;;6.68;2.33;;;7.40;99.90;;;;;;5055638;28;20044;-77
2024/01/01 10:46:37;;;;;;;6.47;2.17;;;7.40;99.90;;;;;;5065795;28;20412;-78
2024/01/01 10:49:04;;;;;;;;;;;7.50;99.90;;;;;;5074128;28;20094;-77
2024/01/01 10:51:41;;;;;;;7.57;2.50;;;7.60;99.90;;;;;;5107165;28;20272;-77
2024/01/01 10:54:41;;;;;;;12.07;3.53;;;7.50;99.90;;;;;;5072485;28;20043;-75
2024/01/01 10:57:42;;;;;;;13.55;4.30;;;7.60;99.90;;;;;;5072947;28;20557;-75
2024/01/01 11:00:14;;;;;;;18.25;3.13;;;7.60;99.90;;;;;;5016684;28;20049;-80
2024/01/01 11:02:42;;;;;;;12.20;3.35;;;7.60;99.90;;;;;;5070135;28;20048;-75
2024/01/01 11:05:10;;;;;;;8.32;2.20;;;7.60;99.90;;;;;;5070529;28;20044;-76
2024/01/01 11:07:59;;;;;;;9.68;2.40;;;7.70;99.90;;;;;;5072803;28;20044;-77
2024/01/01 11:10:42;;;;;;;8.52;2.72;;;7.80;99.90;;;;;;5040686;28;20491;-78
2024/01/01 11:13:12;;;;;;;7.57;1.93;;;7.80;99.90;;;;;;5087458;28;20035;-79
2024/01/01 11:15:42;;;;;;;17.13;2.55;;;8.00;99.90;;;;;;5081636;28;20360;-78
2024/01/01 11:18:32;;;;;;;9.80;2.50;;;7.80;99.90;;;;;;5052691;28;20044;-79
2024/01/01 11:21:01;;;;;;;11.45;2.10;;;7.80;99.90;;;;;;5048659;28;20511;-77
2024/01/01 11:23:39;;;;;;;7.95;2.50;;;8.00;99.90;;;;;;5089674;28;20040;-77
2024/01/01 11:26:23;;;;;;;9.13;2.15;;;8.10;99.90;;;;;;5072357;28;20044;-75
2024/01/01 11:28:52;;;;;;;13.82;2.80;;;8.10;99.90;;;;;;5063263;28;20407;-77
2024/01/01 11:31:18;;;;;;;12.55;2.67;;;8.00;99.90;;;;;;5070247;28;20067;-78
2024/01/01 11:33:43;;;;;;;14.52;3.05;;;8.30;99.90;;;;;;5075878;28;20041;-77
2024/01/01 11:36:09;;;;;;;17.65;3.38;;;8.40;99.90;;;;;;5071478;28;20028;-76
2024/01/01 11:38:38;;;;;;;13.25;2.40;;;8.30;99.90;;;;;;5072018;28;20499;-76
2024/01/01 11:41:04;;;;;;;16.35;3.15;;;8.20;99.90;;;;;;5079368;28;20036;-75
2024/01/01 11:43:30;;;;;;;15.75;4.32;;;8.20;99.90;;;;;;5072633;28;20427;-74
2024/01/01 11:45:57;;;;;;;12.07;2.45;;;8.30;99.90;;;;;;5069846;28;20048;-77
2024/01/01 11:48:24;;;;;;;12.48;2.60;;;8.20;99.90;;;;;;5069678;28;20044;-76
2024/01/01 11:50:53;;;;;;;12.77;3.03;;;8.40;99.90;;;;;;5070084;28;20051;-77
2024/01/01 11:53:19;;;;;;;13.68;2.70;;;8.40;99.90;;;;;;5072726;28;20494;-75
2024/01/01 11:55:45;;;;;;;13.82;3.15;;;8.30;99.90;;;;;;5072656;28;20072;-76
2024/01/01 11:58:11;;;;;;;11.93;3.78;;;8.40;99.90;;;;;;5069389;28;20445;-76
2024/01/01 12:00:37;;;;;;;15.75;2.55;;;8.40;99.90;;;;;;5070829;28;20043;-76
2024/01/01 12:03:06;;;;;;;16.48;4.13;;;8.30;99.90;;;;;;5066656;28;20129;-76
2024/01/01 12:05:33;;;;;;;9.82;2.63;;;8.40;99.90;;;;;;5059091;28;20158;-76
2024/01/01 12:08:10;;;;;;;16.80;3.78;;;8.30;99.90;;;;;;5068791;28;20083;-76
2024/01/01 12:10:35;;;;;;;15.50;3.78;;;8.20;99.90;;;;;;5058935;28;20111;-76
2024/01/01 12:13:03;;;;;;;14.80;2.78;;;8.20;99.90;;;;;;5052744;28;20170;-76
2024/01/01 12:15:32;;;;;;;18.13;3.70;;;8.40;99.90;;;;;;5069204;28;20040;-75
2024/01/01 12:17:58;;;;;;;14.70;3.00;;;8.40;99.90;;;;;;5068588;28;20032;-76
2024/01/01 12:20:25;;;;;;;10.18;2.22;;;8.30;99.90;;;;;;5065723;28;20046;-75
2024/01/01 12:22:52;;;;;;;10.43;2.78;;;8.30;99.90;;;;;;5067553;28;20044;-76
2024/01/01 12:25:19;;;;;;;9.48;2.95;;;8.30;99.90;;;;;;5072667;28;20373;-75
2024/01/01 12:28:02;;;;;;;15.57;2.22;;;8.30;99.90;;;;;;5069389;28;20028;-77
2024/01/01 12:30:28;;;;;;;12.70;2.43;;;8.30;99.90;;;;;;5056516;28;20052;-77
2024/01/01 12:32:54;;;;;;;12.95;2.58;;;8.30;99.90;;;;;;5064066;28;20279;-76
2024/01/01 12:35:20;;;;;;;6.65;1.85;;;8.30;99.90;;;;;;5054616;28;20033;-77
2024/01/01 12:37:47;;;;;;;8.20;2.60;;;8.10;99.90;;;;;;5073062;28;20124;-78
2024/01/01 12:40:14;;;;;;;12.10;3.70;;;8.20;99.90;;;;;;5073325;28;20045;-77
2024/01/01 12:42:39;;;;;;;18.38;4.53;;;8.10;99.90;;;;;;5071939;28;20041;-78
2024/01/01 12:45:06;;;;;;;7.75;3.38;;;8.20;99.90;;;;;;5071309;28;20041;-77